METAR Data

Data at: 2157 UTC 19 Apr 2021

METAR for:LIPZ (Venezia/Polo Arpt, VE, IY)
Text:LIPZ 192150Z 15006KT CAVOK 11/08 Q1015 NOSIG
Temperature: 11.0°C ( 52°F)
Dewpoint: 8.0°C ( 46°F) [RH = 82%]
Pressure (altimeter):29.97 inches Hg (1015.0 mb)
Winds:from the SSE (150 degrees) at 7 MPH (6 knots; 3.1 m/s)
Visibility:6 or more sm (10+ km)
Ceiling:ceiling and visibility are OK
Clouds:unknown

TAF for:LIPZ (Venezia/Polo Arpt, VE, IY) issued at 1700 UTC 19 Apr 2021
Text:TAF LIPZ 191700Z 1918/2024 VRB05KT 9999 SCT030
Forecast period:1800 UTC 19 April 2021 to 0800 UTC 20 April 2021
Forecast type:FROM: standard forecast or significant change
Winds:variable direction winds at 6 MPH (5 knots; 2.6 m/s)
Visibility:6 or more sm (10+ km)
Ceiling:at least 12,000 feet AGL
Clouds: scattered clouds at 3000 feet AGL
Text:BECMG 2008/2010 17010KT
Forecast period:0800 to 1600 UTC 20 April 2021
Forecast type:BECOMING: Conditions expected to become as follows by 1000 UTC 20 April 2021
Winds:from the S (170 degrees) at 12 MPH (10 knots; 5.1 m/s)
Visibility:6 or more sm (10+ km)
Ceiling:at least 12,000 feet AGL
Clouds: scattered clouds at 3000 feet AGL
Text:BECMG 2016/2018 VRB05KT
Forecast period:1600 UTC 20 April 2021 to 0000 UTC 21 April 2021
Forecast type:BECOMING: Conditions expected to become as follows by 1800 UTC 20 April 2021
Winds:variable direction winds at 6 MPH (5 knots; 2.6 m/s)
Visibility:6 or more sm (10+ km)
Ceiling:at least 12,000 feet AGL
Clouds: scattered clouds at 3000 feet AGL